LiveATC.Net - Listen to live air traffic control over the Internet!


ICAO: L70  IATA: L70   Airport: Agua Dulce Airport
City: Agua Dulce   State/Province: California
Country: United States   Continent: North America
KPMD METAR Weather: KPMD 210753Z AUTO 28004KT 10SM CLR 01/M01 A2964 RMK AO2 SLP038 T00111006 400940006
L70 Flight Activity (FlightAware)

L70 CTAF/Misc
Feed Status: UP   Listeners: 0
Listen in your browser - HTML5 player (in browser, HTML5)
Click here to listen with your own player (launches your MP3 player)
L70 CTAF/Misc Audio Archives
FacilityFrequency
Agua Dulce CTAF122.800
Emergency/Guard121.500
LA County Fire Air/Ground 131.425
Practice Areas122.775
SOCAL Helicopters123.025

NOTICE

Unauthorized use prohibited. See LiveATC.net Terms of Service


Find LiveATC Audio Streams


Airport/ARTCC Code

Frequency Search
(e.g., 124.400, 128.75)
Site-wide search
 


Browse LiveATC Feeds
Top 50 LiveATC Feeds
LiveATC Feed Map
Bad Weather Areas

LiveATC FAQ
Offer LiveATC feed
Contact LiveATC.net
Press Inquiries

LiveATC on iPhone
LiveATC on Android

Windows Phone
Windows 8/10

LiveATC Mobile
(Mobile browser)

ATC Audio Archives
Interesting Recordings

LiveATC Forums


Home Page
About LiveATC.net
Make a Donation
Terms of Use
Privacy Policy

Canadian Air Freqs

AIRMETs/SIGMETs

FAA Airport Status
Nat'l Airspace Status
Arrival Demand Charts


Server Software By:
Icecast.org
Liquidsoap